sensor_id;sensor_type;location;lat;lon;timestamp;P1;durP1;ratioP1;P2;durP2;ratioP2
18754;SDS011;35061;47.664;9.166;2023-04-29T00:01:07;3.60;;;3.17;;
18754;SDS011;35061;47.664;9.166;2023-04-29T00:03:35;4.28;;;3.37;;
18754;SDS011;35061;47.664;9.166;2023-04-29T00:06:03;4.20;;;3.60;;
18754;SDS011;35061;47.664;9.166;2023-04-29T00:08:32;4.55;;;4.15;;
18754;SDS011;35061;47.664;9.166;2023-04-29T00:11:00;3.80;;;3.37;;
18754;SDS011;35061;47.664;9.166;2023-04-29T00:13:28;5.28;;;3.90;;
18754;SDS011;35061;47.664;9.166;2023-04-29T00:15:56;7.68;;;4.90;;
18754;SDS011;35061;47.664;9.166;2023-04-29T00:18:24;4.85;;;4.00;;
18754;SDS011;35061;47.664;9.166;2023-04-29T00:20:52;4.80;;;4.30;;
18754;SDS011;35061;47.664;9.166;2023-04-29T00:23:20;4.10;;;3.67;;
18754;SDS011;35061;47.664;9.166;2023-04-29T00:25:48;4.40;;;4.00;;
18754;SDS011;35061;47.664;9.166;2023-04-29T00:28:16;4.90;;;4.40;;
18754;SDS011;35061;47.664;9.166;2023-04-29T00:30:44;4.55;;;4.15;;
18754;SDS011;35061;47.664;9.166;2023-04-29T00:33:13;4.57;;;4.12;;
18754;SDS011;35061;47.664;9.166;2023-04-29T00:35:41;4.93;;;3.70;;
18754;SDS011;35061;47.664;9.166;2023-04-29T00:38:08;4.50;;;4.10;;
18754;SDS011;35061;47.664;9.166;2023-04-29T00:40:37;4.95;;;4.10;;
18754;SDS011;35061;47.664;9.166;2023-04-29T00:43:05;4.60;;;4.07;;
18754;SDS011;35061;47.664;9.166;2023-04-29T00:45:33;4.60;;;4.20;;
18754;SDS011;35061;47.664;9.166;2023-04-29T00:48:01;4.43;;;3.70;;
18754;SDS011;35061;47.664;9.166;2023-04-29T00:50:29;4.93;;;4.35;;
18754;SDS011;35061;47.664;9.166;2023-04-29T00:52:57;4.70;;;4.30;;
18754;SDS011;35061;47.664;9.166;2023-04-29T00:55:26;4.55;;;4.10;;
18754;SDS011;35061;47.664;9.166;2023-04-29T00:57:55;6.20;;;4.18;;
18754;SDS011;35061;47.664;9.166;2023-04-29T01:00:24;4.62;;;4.22;;
18754;SDS011;35061;47.664;9.166;2023-04-29T01:02:53;4.22;;;3.83;;
18754;SDS011;35061;47.664;9.166;2023-04-29T01:05:24;4.70;;;4.30;;
18754;SDS011;35061;47.664;9.166;2023-04-29T01:10:38;4.60;;;4.20;;
18754;SDS011;35061;47.664;9.166;2023-04-29T01:13:21;5.37;;;4.15;;
18754;SDS011;35061;47.664;9.166;2023-04-29T01:16:00;5.75;;;4.30;;
18754;SDS011;35061;47.664;9.166;2023-04-29T01:18:35;5.60;;;4.30;;
18754;SDS011;35061;47.664;9.166;2023-04-29T01:21:07;5.18;;;4.68;;
18754;SDS011;35061;47.664;9.166;2023-04-29T01:23:35;5.32;;;4.82;;
18754;SDS011;35061;47.664;9.166;2023-04-29T01:26:03;4.95;;;4.45;;
18754;SDS011;35061;47.664;9.166;2023-04-29T01:28:43;5.00;;;4.37;;
18754;SDS011;35061;47.664;9.166;2023-04-29T01:36:32;6.95;;;4.72;;
18754;SDS011;35061;47.664;9.166;2023-04-29T01:39:15;6.40;;;4.97;;
18754;SDS011;35061;47.664;9.166;2023-04-29T01:45:14;5.35;;;4.53;;
18754;SDS011;35061;47.664;9.166;2023-04-29T01:47:45;6.75;;;4.70;;
18754;SDS011;35061;47.664;9.166;2023-04-29T01:50:14;5.47;;;4.90;;
18754;SDS011;35061;47.664;9.166;2023-04-29T01:52:42;5.15;;;4.75;;
18754;SDS011;35061;47.664;9.166;2023-04-29T01:55:10;5.62;;;5.03;;
18754;SDS011;35061;47.664;9.166;2023-04-29T01:57:38;5.57;;;4.97;;
18754;SDS011;35061;47.664;9.166;2023-04-29T02:00:06;5.60;;;5.10;;
18754;SDS011;35061;47.664;9.166;2023-04-29T02:02:35;5.25;;;4.57;;
18754;SDS011;35061;47.664;9.166;2023-04-29T02:05:03;5.35;;;4.80;;
18754;SDS011;35061;47.664;9.166;2023-04-29T02:07:32;5.28;;;4.80;;
18754;SDS011;35061;47.664;9.166;2023-04-29T02:09:59;5.85;;;5.12;;
18754;SDS011;35061;47.664;9.166;2023-04-29T02:12:27;5.37;;;4.70;;
18754;SDS011;35061;47.664;9.166;2023-04-29T02:14:55;5.28;;;4.72;;
18754;SDS011;35061;47.664;9.166;2023-04-29T02:17:23;5.97;;;5.37;;
18754;SDS011;35061;47.664;9.166;2023-04-29T02:19:52;7.00;;;5.45;;
18754;SDS011;35061;47.664;9.166;2023-04-29T02:22:21;7.37;;;5.18;;
18754;SDS011;35061;47.664;9.166;2023-04-29T02:24:49;5.85;;;5.35;;
18754;SDS011;35061;47.664;9.166;2023-04-29T02:27:17;5.00;;;4.60;;
18754;SDS011;35061;47.664;9.166;2023-04-29T02:29:45;5.53;;;4.72;;
18754;SDS011;35061;47.664;9.166;2023-04-29T02:32:13;6.75;;;5.12;;
18754;SDS011;35061;47.664;9.166;2023-04-29T02:34:42;5.20;;;4.68;;
18754;SDS011;35061;47.664;9.166;2023-04-29T02:37:10;4.30;;;3.90;;
18754;SDS011;35061;47.664;9.166;2023-04-29T02:39:38;5.07;;;4.57;;
18754;SDS011;35061;47.664;9.166;2023-04-29T02:42:06;6.50;;;5.65;;
18754;SDS011;35061;47.664;9.166;2023-04-29T02:44:34;5.37;;;4.85;;
18754;SDS011;35061;47.664;9.166;2023-04-29T02:47:02;5.40;;;4.35;;
18754;SDS011;35061;47.664;9.166;2023-04-29T02:49:30;6.37;;;5.05;;
18754;SDS011;35061;47.664;9.166;2023-04-29T02:51:58;6.05;;;5.22;;
18754;SDS011;35061;47.664;9.166;2023-04-29T02:54:26;5.40;;;4.53;;
18754;SDS011;35061;47.664;9.166;2023-04-29T02:56:54;4.70;;;4.22;;
18754;SDS011;35061;47.664;9.166;2023-04-29T02:59:21;5.18;;;4.65;;
18754;SDS011;35061;47.664;9.166;2023-04-29T03:01:49;6.12;;;4.40;;
18754;SDS011;35061;47.664;9.166;2023-04-29T03:04:17;5.80;;;5.20;;
18754;SDS011;35061;47.664;9.166;2023-04-29T03:06:45;5.30;;;4.78;;
18754;SDS011;35061;47.664;9.166;2023-04-29T03:09:13;5.07;;;4.57;;
18754;SDS011;35061;47.664;9.166;2023-04-29T03:11:41;5.20;;;4.40;;
18754;SDS011;35061;47.664;9.166;2023-04-29T03:14:09;4.85;;;4.20;;
18754;SDS011;35061;47.664;9.166;2023-04-29T03:16:37;4.90;;;4.40;;
18754;SDS011;35061;47.664;9.166;2023-04-29T03:19:05;4.95;;;4.50;;
18754;SDS011;35061;47.664;9.166;2023-04-29T03:21:33;5.03;;;4.43;;
18754;SDS011;35061;47.664;9.166;2023-04-29T03:24:01;5.07;;;4.57;;
18754;SDS011;35061;47.664;9.166;2023-04-29T03:26:29;4.37;;;3.97;;
18754;SDS011;35061;47.664;9.166;2023-04-29T03:28:57;6.12;;;4.72;;
18754;SDS011;35061;47.664;9.166;2023-04-29T03:31:25;4.28;;;3.97;;
18754;SDS011;35061;47.664;9.166;2023-04-29T03:33:53;4.40;;;4.00;;
18754;SDS011;35061;47.664;9.166;2023-04-29T03:36:21;4.70;;;3.70;;
18754;SDS011;35061;47.664;9.166;2023-04-29T03:38:49;4.57;;;4.18;;
18754;SDS011;35061;47.664;9.166;2023-04-29T03:41:17;5.28;;;4.25;;
18754;SDS011;35061;47.664;9.166;2023-04-29T03:43:45;5.00;;;4.47;;
18754;SDS011;35061;47.664;9.166;2023-04-29T03:46:13;4.78;;;4.37;;
18754;SDS011;35061;47.664;9.166;2023-04-29T03:48:41;5.80;;;4.68;;
18754;SDS011;35061;47.664;9.166;2023-04-29T03:51:09;5.30;;;4.30;;
18754;SDS011;35061;47.664;9.166;2023-04-29T03:53:37;5.70;;;4.03;;
18754;SDS011;35061;47.664;9.166;2023-04-29T03:56:06;4.45;;;3.97;;
18754;SDS011;35061;47.664;9.166;2023-04-29T03:58:34;4.72;;;4.10;;
18754;SDS011;35061;47.664;9.166;2023-04-29T04:01:02;4.53;;;4.12;;
18754;SDS011;35061;47.664;9.166;2023-04-29T04:03:30;4.80;;;4.40;;
18754;SDS011;35061;47.664;9.166;2023-04-29T04:05:59;4.37;;;3.92;;
18754;SDS011;35061;47.664;9.166;2023-04-29T04:08:27;4.32;;;3.92;;
18754;SDS011;35061;47.664;9.166;2023-04-29T04:10:55;4.60;;;4.20;;
18754;SDS011;35061;47.664;9.166;2023-04-29T04:13:29;4.65;;;4.00;;
18754;SDS011;35061;47.664;9.166;2023-04-29T04:15:57;6.07;;;5.15;;
18754;SDS011;35061;47.664;9.166;2023-04-29T04:18:25;6.80;;;5.12;;
18754;SDS011;35061;47.664;9.166;2023-04-29T04:20:53;5.95;;;5.45;;
18754;SDS011;35061;47.664;9.166;2023-04-29T04:23:21;5.80;;;5.28;;
18754;SDS011;35061;47.664;9.166;2023-04-29T04:25:49;6.30;;;5.57;;
18754;SDS011;35061;47.664;9.166;2023-04-29T04:28:17;5.82;;;5.32;;
18754;SDS011;35061;47.664;9.166;2023-04-29T04:30:45;5.75;;;5.25;;
18754;SDS011;35061;47.664;9.166;2023-04-29T04:33:13;6.65;;;5.95;;
18754;SDS011;35061;47.664;9.166;2023-04-29T04:35:42;6.57;;;5.68;;
18754;SDS011;35061;47.664;9.166;2023-04-29T04:38:10;6.32;;;5.70;;
18754;SDS011;35061;47.664;9.166;2023-04-29T04:40:43;6.03;;;5.25;;
18754;SDS011;35061;47.664;9.166;2023-04-29T04:43:11;6.75;;;5.85;;
18754;SDS011;35061;47.664;9.166;2023-04-29T04:45:39;7.90;;;6.20;;
18754;SDS011;35061;47.664;9.166;2023-04-29T04:48:07;7.07;;;6.37;;
18754;SDS011;35061;47.664;9.166;2023-04-29T04:50:35;5.72;;;5.22;;
18754;SDS011;35061;47.664;9.166;2023-04-29T04:53:03;6.80;;;6.05;;
18754;SDS011;35061;47.664;9.166;2023-04-29T04:55:31;6.12;;;5.53;;
18754;SDS011;35061;47.664;9.166;2023-04-29T04:58:00;10.00;;;6.28;;
18754;SDS011;35061;47.664;9.166;2023-04-29T05:00:28;8.23;;;6.35;;
18754;SDS011;35061;47.664;9.166;2023-04-29T05:02:55;8.40;;;6.30;;
18754;SDS011;35061;47.664;9.166;2023-04-29T05:05:24;6.97;;;5.65;;
18754;SDS011;35061;47.664;9.166;2023-04-29T05:07:52;6.40;;;5.80;;
18754;SDS011;35061;47.664;9.166;2023-04-29T05:10:20;6.70;;;5.93;;
18754;SDS011;35061;47.664;9.166;2023-04-29T05:12:52;6.43;;;5.82;;
18754;SDS011;35061;47.664;9.166;2023-04-29T05:15:20;6.62;;;5.93;;
18754;SDS011;35061;47.664;9.166;2023-04-29T05:17:48;7.90;;;6.30;;
18754;SDS011;35061;47.664;9.166;2023-04-29T05:20:16;8.48;;;5.82;;
18754;SDS011;35061;47.664;9.166;2023-04-29T05:22:44;8.30;;;6.93;;
18754;SDS011;35061;47.664;9.166;2023-04-29T05:25:12;6.80;;;6.10;;
18754;SDS011;35061;47.664;9.166;2023-04-29T05:27:40;7.57;;;6.78;;
18754;SDS011;35061;47.664;9.166;2023-04-29T05:30:08;8.55;;;6.53;;
18754;SDS011;35061;47.664;9.166;2023-04-29T05:32:36;7.55;;;6.82;;
18754;SDS011;35061;47.664;9.166;2023-04-29T05:35:04;7.95;;;6.12;;
18754;SDS011;35061;47.664;9.166;2023-04-29T05:37:32;7.10;;;6.40;;
18754;SDS011;35061;47.664;9.166;2023-04-29T05:40:00;9.05;;;6.60;;
18754;SDS011;35061;47.664;9.166;2023-04-29T05:42:28;8.23;;;7.28;;
18754;SDS011;35061;47.664;9.166;2023-04-29T05:44:57;8.30;;;7.50;;
18754;SDS011;35061;47.664;9.166;2023-04-29T05:47:25;7.20;;;6.43;;
18754;SDS011;35061;47.664;9.166;2023-04-29T05:49:53;6.75;;;6.05;;
18754;SDS011;35061;47.664;9.166;2023-04-29T05:52:21;8.45;;;6.32;;
18754;SDS011;35061;47.664;9.166;2023-04-29T05:54:49;7.50;;;5.68;;
18754;SDS011;35061;47.664;9.166;2023-04-29T05:57:17;8.48;;;5.60;;
18754;SDS011;35061;47.664;9.166;2023-04-29T05:59:44;6.07;;;5.47;;
18754;SDS011;35061;47.664;9.166;2023-04-29T06:02:13;7.35;;;5.65;;
18754;SDS011;35061;47.664;9.166;2023-04-29T06:04:41;10.35;;;5.53;;
18754;SDS011;35061;47.664;9.166;2023-04-29T06:07:09;5.53;;;4.93;;
18754;SDS011;35061;47.664;9.166;2023-04-29T06:09:39;5.65;;;5.05;;
18754;SDS011;35061;47.664;9.166;2023-04-29T06:12:07;6.53;;;4.82;;
18754;SDS011;35061;47.664;9.166;2023-04-29T06:14:35;5.22;;;4.72;;
18754;SDS011;35061;47.664;9.166;2023-04-29T06:17:03;4.25;;;3.85;;
18754;SDS011;35061;47.664;9.166;2023-04-29T06:19:31;4.62;;;4.22;;
18754;SDS011;35061;47.664;9.166;2023-04-29T06:22:00;4.18;;;3.78;;
18754;SDS011;35061;47.664;9.166;2023-04-29T06:24:28;4.12;;;3.60;;
18754;SDS011;35061;47.664;9.166;2023-04-29T06:26:56;4.35;;;3.95;;
18754;SDS011;35061;47.664;9.166;2023-04-29T06:29:24;4.05;;;3.75;;
18754;SDS011;35061;47.664;9.166;2023-04-29T06:31:52;4.32;;;3.97;;
18754;SDS011;35061;47.664;9.166;2023-04-29T06:34:20;5.53;;;3.97;;
18754;SDS011;35061;47.664;9.166;2023-04-29T06:36:48;4.43;;;4.03;;
18754;SDS011;35061;47.664;9.166;2023-04-29T06:39:17;4.30;;;3.90;;
18754;SDS011;35061;47.664;9.166;2023-04-29T06:41:45;4.37;;;3.97;;
18754;SDS011;35061;47.664;9.166;2023-04-29T06:44:13;4.65;;;4.25;;
18754;SDS011;35061;47.664;9.166;2023-04-29T06:46:41;4.70;;;4.30;;
18754;SDS011;35061;47.664;9.166;2023-04-29T06:49:09;5.82;;;5.20;;
18754;SDS011;35061;47.664;9.166;2023-04-29T06:51:38;4.90;;;4.30;;
18754;SDS011;35061;47.664;9.166;2023-04-29T06:54:06;5.37;;;4.87;;
18754;SDS011;35061;47.664;9.166;2023-04-29T06:56:34;4.87;;;4.40;;
18754;SDS011;35061;47.664;9.166;2023-04-29T06:59:02;5.62;;;5.12;;
18754;SDS011;35061;47.664;9.166;2023-04-29T07:01:30;5.45;;;4.95;;
18754;SDS011;35061;47.664;9.166;2023-04-29T07:03:58;5.72;;;4.50;;
18754;SDS011;35061;47.664;9.166;2023-04-29T07:06:27;5.43;;;4.93;;
18754;SDS011;35061;47.664;9.166;2023-04-29T07:08:55;4.50;;;4.10;;
18754;SDS011;35061;47.664;9.166;2023-04-29T07:11:23;4.68;;;4.22;;
18754;SDS011;35061;47.664;9.166;2023-04-29T07:13:53;5.62;;;4.68;;
18754;SDS011;35061;47.664;9.166;2023-04-29T07:16:21;5.37;;;4.78;;
18754;SDS011;35061;47.664;9.166;2023-04-29T07:18:52;6.28;;;4.28;;
18754;SDS011;35061;47.664;9.166;2023-04-29T07:21:20;4.53;;;4.12;;
18754;SDS011;35061;47.664;9.166;2023-04-29T07:23:48;5.05;;;4.30;;
18754;SDS011;35061;47.664;9.166;2023-04-29T07:26:17;4.90;;;4.40;;
18754;SDS011;35061;47.664;9.166;2023-04-29T07:28:45;4.80;;;4.12;;
18754;SDS011;35061;47.664;9.166;2023-04-29T07:31:13;4.37;;;3.97;;
18754;SDS011;35061;47.664;9.166;2023-04-29T07:33:41;6.20;;;4.57;;
18754;SDS011;35061;47.664;9.166;2023-04-29T07:36:11;4.22;;;3.90;;
18754;SDS011;35061;47.664;9.166;2023-04-29T07:38:38;4.57;;;4.07;;
18754;SDS011;35061;47.664;9.166;2023-04-29T07:41:06;5.15;;;3.92;;
18754;SDS011;35061;47.664;9.166;2023-04-29T07:43:35;5.55;;;4.20;;
18754;SDS011;35061;47.664;9.166;2023-04-29T07:46:06;4.47;;;3.97;;
18754;SDS011;35061;47.664;9.166;2023-04-29T07:48:37;4.78;;;4.37;;
18754;SDS011;35061;47.664;9.166;2023-04-29T07:51:06;4.50;;;4.10;;
18754;SDS011;35061;47.664;9.166;2023-04-29T07:53:39;6.12;;;4.05;;
18754;SDS011;35061;47.664;9.166;2023-04-29T07:56:07;5.53;;;4.50;;
18754;SDS011;35061;47.664;9.166;2023-04-29T07:58:35;4.60;;;4.20;;
18754;SDS011;35061;47.664;9.166;2023-04-29T08:01:04;4.45;;;4.05;;
18754;SDS011;35061;47.664;9.166;2023-04-29T08:03:36;5.62;;;4.32;;
18754;SDS011;35061;47.664;9.166;2023-04-29T08:06:07;4.47;;;4.07;;
18754;SDS011;35061;47.664;9.166;2023-04-29T08:08:35;3.78;;;3.47;;
18754;SDS011;35061;47.664;9.166;2023-04-29T08:11:04;4.35;;;3.95;;
18754;SDS011;35061;47.664;9.166;2023-04-29T08:13:32;4.95;;;4.45;;
18754;SDS011;35061;47.664;9.166;2023-04-29T08:16:00;4.97;;;4.50;;
18754;SDS011;35061;47.664;9.166;2023-04-29T08:18:28;5.43;;;4.30;;
18754;SDS011;35061;47.664;9.166;2023-04-29T08:20:56;5.35;;;4.30;;
18754;SDS011;35061;47.664;9.166;2023-04-29T08:23:24;4.80;;;4.40;;
18754;SDS011;35061;47.664;9.166;2023-04-29T08:25:52;5.03;;;4.05;;
18754;SDS011;35061;47.664;9.166;2023-04-29T08:28:22;4.65;;;4.25;;
18754;SDS011;35061;47.664;9.166;2023-04-29T08:30:50;4.87;;;4.37;;
18754;SDS011;35061;47.664;9.166;2023-04-29T08:33:18;4.30;;;4.00;;
18754;SDS011;35061;47.664;9.166;2023-04-29T08:35:46;4.03;;;3.70;;
18754;SDS011;35061;47.664;9.166;2023-04-29T08:38:14;3.90;;;3.60;;
18754;SDS011;35061;47.664;9.166;2023-04-29T08:40:43;4.35;;;3.40;;
18754;SDS011;35061;47.664;9.166;2023-04-29T08:43:14;4.87;;;3.75;;
18754;SDS011;35061;47.664;9.166;2023-04-29T08:45:43;4.28;;;3.78;;
18754;SDS011;35061;47.664;9.166;2023-04-29T08:48:13;4.50;;;3.60;;
18754;SDS011;35061;47.664;9.166;2023-04-29T08:50:44;3.53;;;3.22;;
18754;SDS011;35061;47.664;9.166;2023-04-29T08:53:13;2.83;;;2.62;;
18754;SDS011;35061;47.664;9.166;2023-04-29T08:55:42;3.33;;;2.53;;
18754;SDS011;35061;47.664;9.166;2023-04-29T08:58:14;1.50;;;1.40;;
18754;SDS011;35061;47.664;9.166;2023-04-29T09:00:43;2.20;;;2.00;;
18754;SDS011;35061;47.664;9.166;2023-04-29T09:03:25;1.58;;;1.48;;
18754;SDS011;35061;47.664;9.166;2023-04-29T09:06:00;1.83;;;1.62;;
18754;SDS011;35061;47.664;9.166;2023-04-29T09:08:28;1.73;;;1.62;;
18754;SDS011;35061;47.664;9.166;2023-04-29T09:10:57;1.73;;;1.08;;
18754;SDS011;35061;47.664;9.166;2023-04-29T09:13:26;1.30;;;1.30;;
18754;SDS011;35061;47.664;9.166;2023-04-29T09:15:56;2.10;;;1.25;;
18754;SDS011;35061;47.664;9.166;2023-04-29T09:21:19;2.25;;;1.30;;
18754;SDS011;35061;47.664;9.166;2023-04-29T09:23:50;1.52;;;1.00;;
18754;SDS011;35061;47.664;9.166;2023-04-29T09:26:19;1.20;;;1.10;;
18754;SDS011;35061;47.664;9.166;2023-04-29T09:29:04;3.70;;;1.40;;
18754;SDS011;35061;47.664;9.166;2023-04-29T09:31:35;2.42;;;1.30;;
18754;SDS011;35061;47.664;9.166;2023-04-29T09:34:04;1.87;;;1.10;;
18754;SDS011;35061;47.664;9.166;2023-04-29T09:36:34;1.65;;;1.10;;
18754;SDS011;35061;47.664;9.166;2023-04-29T09:39:02;1.50;;;1.40;;
18754;SDS011;35061;47.664;9.166;2023-04-29T09:41:32;1.23;;;1.00;;
18754;SDS011;35061;47.664;9.166;2023-04-29T09:44:04;1.65;;;1.00;;
18754;SDS011;35061;47.664;9.166;2023-04-29T09:46:33;1.30;;;1.20;;
18754;SDS011;35061;47.664;9.166;2023-04-29T09:49:03;0.98;;;0.95;;
18754;SDS011;35061;47.664;9.166;2023-04-29T09:51:31;1.25;;;1.00;;
18754;SDS011;35061;47.664;9.166;2023-04-29T09:53:59;1.33;;;1.10;;
18754;SDS011;35061;47.664;9.166;2023-04-29T09:56:33;1.20;;;1.15;;
18754;SDS011;35061;47.664;9.166;2023-04-29T09:59:18;1.67;;;1.10;;
18754;SDS011;35061;47.664;9.166;2023-04-29T10:01:47;1.27;;;0.90;;
18754;SDS011;35061;47.664;9.166;2023-04-29T10:04:17;2.17;;;0.82;;
18754;SDS011;35061;47.664;9.166;2023-04-29T10:06:50;1.00;;;1.00;;
18754;SDS011;35061;47.664;9.166;2023-04-29T10:09:20;1.27;;;0.95;;
18754;SDS011;35061;47.664;9.166;2023-04-29T10:11:50;2.92;;;1.30;;
18754;SDS011;35061;47.664;9.166;2023-04-29T10:14:19;0.80;;;0.80;;
18754;SDS011;35061;47.664;9.166;2023-04-29T10:16:58;1.00;;;0.90;;
18754;SDS011;35061;47.664;9.166;2023-04-29T10:19:34;0.88;;;0.88;;
18754;SDS011;35061;47.664;9.166;2023-04-29T10:22:08;1.02;;;0.93;;
18754;SDS011;35061;47.664;9.166;2023-04-29T10:24:38;1.60;;;0.90;;
18754;SDS011;35061;47.664;9.166;2023-04-29T10:27:07;1.83;;;0.85;;
18754;SDS011;35061;47.664;9.166;2023-04-29T10:29:40;0.80;;;0.80;;
18754;SDS011;35061;47.664;9.166;2023-04-29T10:32:10;2.28;;;1.35;;
18754;SDS011;35061;47.664;9.166;2023-04-29T10:34:40;0.90;;;0.90;;
18754;SDS011;35061;47.664;9.166;2023-04-29T10:37:10;1.48;;;1.37;;
18754;SDS011;35061;47.664;9.166;2023-04-29T10:39:43;0.75;;;0.75;;
18754;SDS011;35061;47.664;9.166;2023-04-29T10:42:30;0.52;;;0.50;;
18754;SDS011;35061;47.664;9.166;2023-04-29T10:45:16;1.10;;;0.60;;
18754;SDS011;35061;47.664;9.166;2023-04-29T10:53:16;1.87;;;0.80;;
18754;SDS011;35061;47.664;9.166;2023-04-29T10:58:45;0.88;;;0.68;;
18754;SDS011;35061;47.664;9.166;2023-04-29T11:01:14;0.77;;;0.70;;
18754;SDS011;35061;47.664;9.166;2023-04-29T11:09:04;1.25;;;0.90;;
18754;SDS011;35061;47.664;9.166;2023-04-29T11:14:13;0.75;;;0.75;;
18754;SDS011;35061;47.664;9.166;2023-04-29T11:16:51;2.03;;;0.90;;
18754;SDS011;35061;47.664;9.166;2023-04-29T11:19:22;1.33;;;0.80;;
18754;SDS011;35061;47.664;9.166;2023-04-29T11:24:51;0.77;;;0.77;;
18754;SDS011;35061;47.664;9.166;2023-04-29T11:27:20;1.12;;;0.95;;
18754;SDS011;35061;47.664;9.166;2023-04-29T11:29:52;0.98;;;0.80;;
18754;SDS011;35061;47.664;9.166;2023-04-29T11:32:25;0.80;;;0.80;;
18754;SDS011;35061;47.664;9.166;2023-04-29T11:35:05;0.88;;;0.77;;
18754;SDS011;35061;47.664;9.166;2023-04-29T11:37:41;1.25;;;1.00;;
18754;SDS011;35061;47.664;9.166;2023-04-29T11:40:12;0.70;;;0.70;;
18754;SDS011;35061;47.664;9.166;2023-04-29T11:42:43;0.60;;;0.60;;
18754;SDS011;35061;47.664;9.166;2023-04-29T11:45:18;0.70;;;0.70;;
18754;SDS011;35061;47.664;9.166;2023-04-29T11:47:46;0.50;;;0.50;;
18754;SDS011;35061;47.664;9.166;2023-04-29T11:50:17;0.80;;;0.80;;
18754;SDS011;35061;47.664;9.166;2023-04-29T11:52:46;1.95;;;0.80;;
18754;SDS011;35061;47.664;9.166;2023-04-29T11:55:15;0.60;;;0.60;;
18754;SDS011;35061;47.664;9.166;2023-04-29T11:57:47;1.20;;;0.75;;
18754;SDS011;35061;47.664;9.166;2023-04-29T12:00:16;0.70;;;0.70;;
18754;SDS011;35061;47.664;9.166;2023-04-29T12:02:44;1.25;;;1.10;;
18754;SDS011;35061;47.664;9.166;2023-04-29T12:05:13;1.87;;;0.80;;
18754;SDS011;35061;47.664;9.166;2023-04-29T12:07:43;1.15;;;0.80;;
18754;SDS011;35061;47.664;9.166;2023-04-29T12:10:11;1.05;;;0.73;;
18754;SDS011;35061;47.664;9.166;2023-04-29T12:12:39;0.85;;;0.62;;
18754;SDS011;35061;47.664;9.166;2023-04-29T12:15:10;1.45;;;0.70;;
18754;SDS011;35061;47.664;9.166;2023-04-29T12:17:39;1.87;;;0.75;;
18754;SDS011;35061;47.664;9.166;2023-04-29T12:20:08;1.15;;;1.00;;
18754;SDS011;35061;47.664;9.166;2023-04-29T12:22:37;1.45;;;0.60;;
18754;SDS011;35061;47.664;9.166;2023-04-29T12:25:05;0.73;;;0.50;;
18754;SDS011;35061;47.664;9.166;2023-04-29T12:27:38;1.48;;;0.60;;
18754;SDS011;35061;47.664;9.166;2023-04-29T12:30:10;0.88;;;0.52;;
18754;SDS011;35061;47.664;9.166;2023-04-29T12:32:39;0.95;;;0.70;;
18754;SDS011;35061;47.664;9.166;2023-04-29T12:35:14;0.50;;;0.50;;
18754;SDS011;35061;47.664;9.166;2023-04-29T12:37:46;0.60;;;0.60;;
18754;SDS011;35061;47.664;9.166;2023-04-29T12:40:15;0.88;;;0.80;;
18754;SDS011;35061;47.664;9.166;2023-04-29T12:42:44;2.22;;;0.95;;
18754;SDS011;35061;47.664;9.166;2023-04-29T12:45:26;0.80;;;0.80;;
18754;SDS011;35061;47.664;9.166;2023-04-29T12:47:55;0.95;;;0.70;;
18754;SDS011;35061;47.664;9.166;2023-04-29T12:50:28;0.62;;;0.60;;
18754;SDS011;35061;47.664;9.166;2023-04-29T12:53:04;0.95;;;0.85;;
18754;SDS011;35061;47.664;9.166;2023-04-29T12:55:34;1.23;;;0.93;;
18754;SDS011;35061;47.664;9.166;2023-04-29T12:58:04;1.30;;;0.70;;
18754;SDS011;35061;47.664;9.166;2023-04-29T13:00:33;1.05;;;0.98;;
18754;SDS011;35061;47.664;9.166;2023-04-29T13:03:04;0.77;;;0.73;;
18754;SDS011;35061;47.664;9.166;2023-04-29T13:05:32;1.52;;;1.00;;
18754;SDS011;35061;47.664;9.166;2023-04-29T13:08:00;0.88;;;0.80;;
18754;SDS011;35061;47.664;9.166;2023-04-29T13:10:29;3.37;;;1.00;;
18754;SDS011;35061;47.664;9.166;2023-04-29T13:12:57;3.47;;;1.20;;
18754;SDS011;35061;47.664;9.166;2023-04-29T13:15:25;2.22;;;1.35;;
18754;SDS011;35061;47.664;9.166;2023-04-29T13:17:54;4.32;;;1.27;;
18754;SDS011;35061;47.664;9.166;2023-04-29T13:20:22;2.15;;;1.05;;
18754;SDS011;35061;47.664;9.166;2023-04-29T13:22:50;3.00;;;1.17;;
18754;SDS011;35061;47.664;9.166;2023-04-29T13:25:18;0.90;;;0.90;;
18754;SDS011;35061;47.664;9.166;2023-04-29T13:27:46;1.12;;;1.02;;
18754;SDS011;35061;47.664;9.166;2023-04-29T13:30:14;1.65;;;1.02;;
18754;SDS011;35061;47.664;9.166;2023-04-29T13:32:42;1.15;;;0.73;;
18754;SDS011;35061;47.664;9.166;2023-04-29T13:35:19;1.58;;;1.00;;
18754;SDS011;35061;47.664;9.166;2023-04-29T13:37:47;1.00;;;0.70;;
18754;SDS011;35061;47.664;9.166;2023-04-29T13:40:15;0.95;;;0.90;;
18754;SDS011;35061;47.664;9.166;2023-04-29T13:42:46;0.70;;;0.70;;
18754;SDS011;35061;47.664;9.166;2023-04-29T13:45:18;1.73;;;1.08;;
18754;SDS011;35061;47.664;9.166;2023-04-29T13:47:46;1.77;;;1.02;;
18754;SDS011;35061;47.664;9.166;2023-04-29T13:50:17;4.45;;;1.50;;
18754;SDS011;35061;47.664;9.166;2023-04-29T13:53:05;1.42;;;0.90;;
18754;SDS011;35061;47.664;9.166;2023-04-29T13:55:37;2.80;;;1.23;;
18754;SDS011;35061;47.664;9.166;2023-04-29T13:58:25;1.85;;;1.00;;
18754;SDS011;35061;47.664;9.166;2023-04-29T14:01:13;5.40;;;4.90;;
18754;SDS011;35061;47.664;9.166;2023-04-29T14:04:01;1.87;;;1.20;;
18754;SDS011;35061;47.664;9.166;2023-04-29T14:06:29;3.17;;;1.30;;
18754;SDS011;35061;47.664;9.166;2023-04-29T14:08:59;1.02;;;0.80;;
18754;SDS011;35061;47.664;9.166;2023-04-29T14:11:29;1.00;;;0.93;;
18754;SDS011;35061;47.664;9.166;2023-04-29T14:13:57;1.12;;;0.90;;
18754;SDS011;35061;47.664;9.166;2023-04-29T14:16:25;1.92;;;0.77;;
18754;SDS011;35061;47.664;9.166;2023-04-29T14:18:55;0.88;;;0.80;;
18754;SDS011;35061;47.664;9.166;2023-04-29T14:21:23;0.93;;;0.93;;
18754;SDS011;35061;47.664;9.166;2023-04-29T14:23:51;1.98;;;0.85;;
18754;SDS011;35061;47.664;9.166;2023-04-29T14:26:19;1.00;;;0.70;;
18754;SDS011;35061;47.664;9.166;2023-04-29T14:28:57;0.88;;;0.80;;
18754;SDS011;35061;47.664;9.166;2023-04-29T14:31:26;1.55;;;0.90;;
18754;SDS011;35061;47.664;9.166;2023-04-29T14:33:58;0.90;;;0.90;;
18754;SDS011;35061;47.664;9.166;2023-04-29T14:36:26;0.98;;;0.90;;
18754;SDS011;35061;47.664;9.166;2023-04-29T14:38:54;1.08;;;0.90;;
18754;SDS011;35061;47.664;9.166;2023-04-29T14:41:22;1.35;;;0.60;;
18754;SDS011;35061;47.664;9.166;2023-04-29T14:43:50;0.77;;;0.75;;
18754;SDS011;35061;47.664;9.166;2023-04-29T14:46:18;2.05;;;0.60;;
18754;SDS011;35061;47.664;9.166;2023-04-29T14:48:48;1.17;;;0.73;;
18754;SDS011;35061;47.664;9.166;2023-04-29T14:51:16;1.10;;;0.90;;
18754;SDS011;35061;47.664;9.166;2023-04-29T14:53:44;3.47;;;1.62;;
18754;SDS011;35061;47.664;9.166;2023-04-29T14:56:12;1.50;;;1.30;;
18754;SDS011;35061;47.664;9.166;2023-04-29T14:58:40;1.37;;;1.25;;
18754;SDS011;35061;47.664;9.166;2023-04-29T15:01:08;1.05;;;1.00;;
18754;SDS011;35061;47.664;9.166;2023-04-29T15:03:36;1.05;;;0.95;;
18754;SDS011;35061;47.664;9.166;2023-04-29T15:06:10;2.10;;;1.00;;
18754;SDS011;35061;47.664;9.166;2023-04-29T15:08:38;1.05;;;0.88;;
18754;SDS011;35061;47.664;9.166;2023-04-29T15:11:06;0.85;;;0.85;;
18754;SDS011;35061;47.664;9.166;2023-04-29T15:13:34;1.77;;;0.90;;
18754;SDS011;35061;47.664;9.166;2023-04-29T15:16:02;0.70;;;0.70;;
18754;SDS011;35061;47.664;9.166;2023-04-29T15:18:30;1.02;;;0.90;;
18754;SDS011;35061;47.664;9.166;2023-04-29T15:20:58;0.70;;;0.70;;
18754;SDS011;35061;47.664;9.166;2023-04-29T15:23:26;1.33;;;0.70;;
18754;SDS011;35061;47.664;9.166;2023-04-29T15:25:54;1.77;;;0.80;;
18754;SDS011;35061;47.664;9.166;2023-04-29T15:28:23;1.00;;;0.65;;
18754;SDS011;35061;47.664;9.166;2023-04-29T15:30:52;2.97;;;1.65;;
18754;SDS011;35061;47.664;9.166;2023-04-29T15:33:20;2.22;;;1.48;;
18754;SDS011;35061;47.664;9.166;2023-04-29T15:35:48;2.37;;;1.55;;